createdAt,value
2024-04-04T10:15:40.313Z,939.90
2024-04-04T10:15:50.582Z,939.88
2024-04-04T10:16:03.422Z,939.91
2024-04-04T10:16:13.581Z,939.92
2024-04-04T10:16:28.293Z,939.92
2024-04-04T10:16:41.330Z,939.90
2024-04-04T10:16:51.394Z,939.85
2024-04-04T10:17:01.302Z,939.88
2024-04-04T10:17:11.558Z,939.89
2024-04-04T10:17:23.524Z,939.90
2024-04-04T10:17:34.568Z,939.90
2024-04-04T10:17:46.540Z,939.75
2024-04-04T10:25:25.541Z,939.89
2024-04-04T10:26:38.344Z,939.82
2024-04-04T10:26:49.307Z,939.83
2024-04-04T10:27:00.309Z,939.84
2024-04-04T10:27:11.322Z,939.84
2024-04-04T10:27:22.331Z,939.81
2024-04-04T10:27:33.354Z,939.80
2024-04-04T10:27:45.308Z,939.80
2024-04-04T10:27:56.315Z,939.79
2024-04-04T10:28:07.350Z,939.81
2024-04-04T10:28:19.359Z,939.81
2024-04-04T10:28:30.299Z,939.84
2024-04-04T10:28:41.307Z,939.81
2024-04-04T10:28:52.331Z,939.85
2024-04-04T10:29:07.215Z,939.84
2024-04-04T10:29:27.718Z,939.74
2024-04-04T10:29:33.291Z,939.78
2024-04-04T10:29:40.339Z,939.80
2024-04-04T10:29:53.668Z,939.81
2024-04-04T10:29:59.331Z,939.84
2024-04-04T10:30:09.355Z,939.82
2024-04-04T10:30:21.276Z,939.82
2024-04-04T10:30:32.326Z,939.80
2024-04-04T10:30:43.351Z,939.90
2024-04-04T10:30:55.295Z,939.79
2024-04-04T10:31:07.345Z,939.76
2024-04-04T10:31:18.311Z,939.79
2024-04-04T10:31:29.329Z,939.84
2024-04-04T10:31:40.309Z,939.88
2024-04-04T10:31:51.376Z,939.82
2024-04-04T10:32:03.307Z,939.78
2024-04-04T10:32:14.402Z,939.83
2024-04-04T10:32:25.379Z,939.79
2024-04-04T10:32:37.304Z,939.80
2024-04-04T10:32:39.870Z,939.83
2024-04-04T10:32:48.321Z,939.77
2024-04-04T10:32:50.164Z,939.80
2024-04-04T10:32:59.334Z,939.78
2024-04-04T10:33:00.422Z,939.81
2024-04-04T10:33:10.348Z,939.79
2024-04-04T10:33:10.724Z,939.83
2024-04-04T10:33:21.016Z,939.82
2024-04-04T10:33:21.357Z,939.80
2024-04-04T10:33:31.298Z,939.82
2024-04-04T10:33:33.282Z,939.78
2024-04-04T10:33:41.568Z,939.82
2024-04-04T10:33:44.312Z,939.78
2024-04-04T10:33:51.842Z,939.81
2024-04-04T10:33:55.318Z,939.78
2024-04-04T10:34:02.115Z,939.80
2024-04-04T10:34:06.428Z,939.78
2024-04-04T10:34:13.919Z,939.77
2024-04-04T10:34:22.623Z,939.81
2024-04-04T10:34:38.358Z,939.75
2024-04-04T10:34:39.335Z,939.72
2024-04-04T10:34:41.020Z,939.74
2024-04-04T10:34:50.337Z,939.76
2024-04-04T10:35:01.429Z,939.83
2024-04-04T10:35:16.705Z,939.82
2024-04-04T10:35:27.000Z,939.78
2024-04-04T10:35:47.517Z,939.75
2024-04-04T10:35:57.834Z,939.76
2024-04-04T10:36:08.101Z,939.78
2024-04-04T10:36:33.699Z,939.78
2024-04-04T10:36:43.964Z,939.78
2024-04-04T10:36:54.225Z,939.78
2024-04-04T10:37:04.519Z,939.77
2024-04-04T10:37:14.806Z,939.79
2024-04-04T10:37:25.134Z,939.80
2024-04-04T10:37:35.391Z,939.78
2024-04-04T10:37:45.650Z,939.74
2024-04-04T10:37:55.942Z,939.78
2024-04-04T10:38:06.208Z,939.75
2024-04-04T10:38:16.502Z,939.75
2024-04-04T10:38:26.774Z,939.76
2024-04-04T10:38:37.039Z,939.75
2024-04-04T10:38:47.325Z,939.77
2024-04-04T10:38:57.600Z,939.77
2024-04-04T10:39:07.878Z,939.77
2024-04-04T10:39:18.142Z,939.84
2024-04-04T10:39:28.410Z,939.75
2024-04-04T10:39:38.679Z,939.74
2024-04-04T10:39:49.717Z,939.76
2024-04-04T10:39:59.332Z,939.74
2024-04-04T10:40:09.645Z,939.78
2024-04-04T10:40:19.938Z,939.80
2024-04-04T10:40:30.206Z,939.82
2024-04-04T10:40:40.488Z,939.82
2024-04-04T10:40:50.745Z,939.84
2024-04-04T10:41:01.013Z,939.84
2024-04-04T10:41:11.281Z,939.80
2024-04-04T10:41:21.558Z,939.85
2024-04-04T10:41:31.835Z,939.88
2024-04-04T10:41:42.139Z,939.86
2024-04-04T10:41:52.549Z,939.88
2024-04-04T10:42:02.620Z,939.86
2024-04-04T10:42:12.893Z,939.85
2024-04-04T10:42:23.157Z,939.87
2024-04-04T10:42:33.566Z,939.85
2024-04-04T10:42:43.643Z,939.86
2024-04-04T10:42:53.907Z,939.86
2024-04-04T10:43:04.172Z,939.89
2024-04-04T10:43:14.494Z,939.90
2024-04-04T10:43:24.840Z,939.86
2024-04-04T10:43:35.113Z,939.81
2024-04-04T10:43:45.413Z,939.83
2024-04-04T10:43:55.719Z,939.83
2024-04-04T10:44:05.997Z,939.83
2024-04-04T10:44:16.282Z,939.85
2024-04-04T10:44:26.557Z,939.88
2024-04-04T10:44:36.863Z,939.87
2024-04-04T10:44:47.149Z,939.87
2024-04-04T10:44:57.416Z,939.87
2024-04-04T10:45:07.685Z,939.87
2024-04-04T10:45:17.966Z,939.87
2024-04-04T10:45:28.279Z,939.90
2024-04-04T10:45:38.545Z,939.90
2024-04-04T10:45:48.812Z,939.87
2024-04-04T10:45:59.080Z,939.88
2024-04-04T10:46:09.378Z,939.86
2024-04-04T10:46:19.734Z,939.84
2024-04-04T10:46:30.012Z,939.87
2024-04-04T10:46:40.292Z,939.89
2024-04-04T10:46:50.586Z,939.89
2024-04-04T10:47:00.853Z,939.86
2024-04-04T10:47:11.128Z,939.82
2024-04-04T10:47:21.393Z,939.85
2024-04-04T10:47:31.665Z,939.79
2024-04-04T10:47:41.944Z,939.84
2024-04-04T10:47:52.210Z,939.87
2024-04-04T10:48:02.468Z,939.84
2024-04-04T10:48:12.740Z,939.84
2024-04-04T10:48:23.014Z,939.81
2024-04-04T10:48:33.319Z,939.85
2024-04-04T10:48:43.589Z,939.85
2024-04-04T10:48:53.873Z,939.84
2024-04-04T10:49:04.135Z,939.84
2024-04-04T10:49:14.471Z,939.79
2024-04-04T10:49:24.766Z,939.76
2024-04-04T10:52:39.488Z,939.82
2024-04-04T10:52:49.368Z,939.74
2024-04-04T10:52:59.690Z,939.72
2024-04-04T10:53:09.978Z,939.72
2024-04-04T10:53:20.267Z,939.72
2024-04-04T10:53:30.538Z,939.77
2024-04-04T10:53:40.827Z,939.76
2024-04-04T10:53:51.119Z,939.72
2024-04-04T10:54:01.440Z,939.69
2024-04-04T10:54:11.714Z,939.67
2024-04-04T10:54:22.030Z,939.74
2024-04-04T10:54:32.304Z,939.60
2024-04-04T10:54:42.583Z,939.67
2024-04-04T10:54:52.857Z,939.68
2024-04-04T10:55:03.150Z,939.70
2024-04-04T10:55:13.496Z,939.75
2024-04-04T10:55:23.813Z,939.77
2024-04-04T10:55:34.072Z,939.75
2024-04-04T10:55:44.347Z,939.72
2024-04-04T10:55:54.623Z,939.75
2024-04-04T10:56:04.971Z,939.72
2024-04-04T10:56:15.255Z,939.72
2024-04-04T10:56:25.539Z,939.72
2024-04-04T10:56:35.848Z,939.71
2024-04-04T10:56:46.199Z,939.66
2024-04-04T10:56:56.479Z,939.60
2024-04-04T10:57:06.771Z,939.65
2024-04-04T10:57:17.107Z,939.71
2024-04-04T10:57:27.409Z,939.72
2024-04-04T10:57:37.724Z,939.69
2024-04-04T10:57:48.013Z,939.66
2024-04-04T10:57:58.285Z,939.72
2024-04-04T10:58:08.571Z,939.68
2024-04-04T10:58:18.875Z,939.63
2024-04-04T10:58:29.167Z,939.68
2024-04-04T10:58:39.442Z,939.65
2024-04-04T10:58:50.007Z,939.61
2024-04-04T10:59:00.020Z,939.65
2024-04-04T10:59:10.303Z,939.70
2024-04-04T10:59:20.593Z,939.66
2024-04-04T10:59:26.297Z,939.67
2024-04-04T10:59:30.906Z,939.65
2024-04-04T10:59:36.593Z,939.69
2024-04-04T10:59:41.177Z,939.64
2024-04-04T10:59:46.855Z,939.73
2024-04-04T10:59:51.465Z,939.67
2024-04-04T10:59:57.119Z,939.76
2024-04-04T11:00:01.773Z,939.74
2024-04-04T11:00:07.425Z,939.79
2024-04-04T11:00:12.057Z,939.79
2024-04-04T11:00:17.694Z,939.81
2024-04-04T11:00:22.381Z,939.78
2024-04-04T11:00:27.993Z,939.79
2024-04-04T11:00:32.698Z,939.76
2024-04-04T11:00:38.263Z,939.79
2024-04-04T11:00:42.991Z,939.75
2024-04-04T11:00:48.539Z,939.78
2024-04-04T11:00:53.277Z,939.77
2024-04-04T11:00:58.805Z,939.77
2024-04-04T11:01:03.547Z,939.76
2024-04-04T11:01:09.086Z,939.78
2024-04-04T11:01:13.863Z,939.74
2024-04-04T11:01:19.377Z,939.82
2024-04-04T11:01:24.018Z,939.80
2024-04-04T11:01:29.655Z,939.80
2024-04-04T11:01:34.305Z,939.74
2024-04-04T11:01:39.940Z,939.80
2024-04-04T11:01:44.574Z,939.78
2024-04-04T11:01:50.208Z,939.82
2024-04-04T11:01:54.847Z,939.79
2024-04-04T11:02:00.504Z,939.85
2024-04-04T11:02:05.136Z,939.80
2024-04-04T11:02:10.769Z,939.79
2024-04-04T11:02:15.428Z,939.73
2024-04-04T11:02:21.085Z,939.80
2024-04-04T11:02:25.798Z,939.77
2024-04-04T11:02:31.352Z,939.84
2024-04-04T11:02:36.094Z,939.80
2024-04-04T11:02:41.625Z,939.88
2024-04-04T11:02:46.356Z,939.88
2024-04-04T11:02:51.921Z,939.86
2024-04-04T11:03:02.239Z,939.82
2024-04-04T11:03:12.506Z,939.81
2024-04-04T11:03:22.770Z,939.76
2024-04-04T11:03:33.080Z,939.84
2024-04-04T11:03:43.354Z,939.86
2024-04-04T11:03:53.644Z,939.82
2024-04-04T11:04:03.933Z,939.83
2024-04-04T11:04:14.253Z,939.81
2024-04-04T11:04:24.541Z,939.87
2024-04-04T11:06:30.782Z,939.76
2024-04-04T11:06:41.053Z,939.76
2024-04-04T11:06:51.321Z,939.78
2024-04-04T11:07:01.604Z,939.85
2024-04-04T11:07:11.930Z,939.82
2024-04-04T11:07:22.207Z,939.79
2024-04-04T11:09:02.695Z,939.72
2024-04-04T11:09:12.997Z,939.74
2024-04-04T11:10:46.781Z,939.77
2024-04-04T11:10:57.132Z,939.77
2024-04-04T11:11:07.451Z,939.69
2024-04-04T11:12:55.755Z,939.67
2024-04-04T11:13:05.355Z,939.69
2024-04-04T11:13:15.674Z,939.76
2024-04-04T11:13:26.761Z,939.73
2024-04-04T11:13:36.121Z,939.73
2024-04-04T11:13:46.419Z,939.67
2024-04-04T11:13:56.701Z,939.72
2024-04-04T11:14:07.010Z,939.77
2024-04-04T11:14:17.284Z,939.81
2024-04-04T11:14:27.588Z,939.81
2024-04-04T11:14:37.911Z,939.78
2024-04-04T11:14:48.192Z,939.79
2024-04-04T11:14:58.495Z,939.73
2024-04-04T11:15:08.829Z,939.71
2024-04-04T11:15:19.110Z,939.71
2024-04-04T11:15:29.320Z,939.71
2024-04-04T11:15:39.634Z,939.74
2024-04-04T11:15:49.935Z,939.76
2024-04-04T11:16:00.325Z,939.75
2024-04-04T11:16:10.584Z,939.71
2024-04-04T11:16:22.776Z,939.73
2024-04-04T11:16:31.166Z,939.67
2024-04-04T11:16:41.460Z,939.71
2024-04-04T11:16:51.786Z,939.71
2024-04-04T11:17:02.094Z,939.69
2024-04-04T11:17:12.399Z,939.69
2024-04-04T11:17:32.931Z,939.65
2024-04-04T11:17:43.202Z,939.66
2024-04-04T11:17:53.486Z,939.70
2024-04-04T11:18:03.786Z,939.66
2024-04-04T11:18:14.075Z,939.66
2024-04-04T11:18:24.366Z,939.65
2024-04-04T11:18:34.751Z,939.63
2024-04-04T11:18:45.035Z,939.62
2024-04-04T11:18:56.053Z,939.61
2024-04-04T11:19:05.604Z,939.60
2024-04-04T11:19:15.928Z,939.61
2024-04-04T11:19:26.181Z,939.61
2024-04-04T11:19:36.469Z,939.61
2024-04-04T11:19:46.766Z,939.64
2024-04-04T11:19:57.034Z,939.67
2024-04-04T11:20:07.325Z,939.69
2024-04-04T11:20:17.616Z,939.71
2024-04-04T11:20:27.898Z,939.71
2024-04-04T11:20:38.176Z,939.74
2024-04-04T11:20:48.445Z,939.77
2024-04-04T11:20:58.744Z,939.75
2024-04-04T11:21:09.100Z,939.74
2024-04-04T11:21:19.416Z,939.76
2024-04-04T11:21:29.706Z,939.78
2024-04-04T11:21:40.017Z,939.83
2024-04-04T11:21:50.298Z,939.81
2024-04-04T11:22:00.606Z,939.76
2024-04-04T11:22:10.933Z,939.74
2024-04-04T11:22:21.214Z,939.73
2024-04-04T11:22:31.522Z,939.74
2024-04-04T11:22:42.774Z,939.74
2024-04-04T11:28:28.446Z,939.58
2024-04-04T11:28:49.656Z,939.62
2024-04-04T11:28:56.377Z,939.60
2024-04-04T11:29:00.234Z,939.61
2024-04-04T11:29:09.453Z,939.60
2024-04-04T11:29:19.784Z,939.60
2024-04-04T11:29:30.070Z,939.60
2024-04-04T11:29:40.435Z,939.61
2024-04-04T11:29:50.699Z,939.62
2024-04-04T11:30:00.993Z,939.53
2024-04-04T11:30:11.352Z,939.53
2024-04-04T11:30:21.651Z,939.49
2024-04-04T11:30:33.495Z,939.47
2024-04-04T11:30:42.253Z,939.51
2024-04-04T11:30:52.705Z,939.55
2024-04-04T11:31:02.774Z,939.54
2024-04-04T11:31:13.111Z,939.53
2024-04-04T11:31:23.392Z,939.57
2024-04-04T11:31:33.703Z,939.57
2024-04-04T11:31:44.024Z,939.55
2024-04-04T11:31:54.326Z,939.51
2024-04-04T11:32:04.700Z,939.52
2024-04-04T11:32:14.952Z,939.49
2024-04-04T11:32:25.263Z,939.51
2024-04-04T11:32:35.620Z,939.47
2024-04-04T11:32:45.812Z,939.50
2024-04-04T11:32:56.123Z,939.53
2024-04-04T11:33:06.422Z,939.52
2024-04-04T11:33:16.774Z,939.54
2024-04-04T11:33:27.042Z,939.53
2024-04-04T11:33:37.317Z,939.65
2024-04-04T11:33:47.636Z,939.62
2024-04-04T11:33:58.873Z,939.64
2024-04-04T11:34:09.985Z,939.62
2024-04-04T11:34:18.990Z,939.68
2024-04-04T11:34:28.630Z,939.64
2024-04-04T11:34:38.923Z,939.68
2024-04-04T11:34:49.375Z,939.62
2024-04-04T11:34:59.469Z,939.64
2024-04-04T11:35:20.065Z,939.63
2024-04-04T11:35:31.011Z,939.62
2024-04-04T11:35:40.568Z,939.60
2024-04-04T11:35:51.533Z,939.61
2024-04-04T11:36:01.241Z,939.59
2024-04-04T11:36:11.528Z,939.58
2024-04-04T11:36:21.826Z,939.61
2024-04-04T11:36:32.121Z,939.63
2024-04-04T11:36:42.474Z,939.63
2024-04-04T11:36:52.841Z,939.62
2024-04-04T11:37:08.098Z,939.62
2024-04-04T11:37:13.346Z,939.61
2024-04-04T11:37:23.658Z,939.61
2024-04-04T11:37:33.989Z,939.60
2024-04-04T11:37:44.264Z,939.58
2024-04-04T11:40:36.615Z,939.66
2024-04-04T11:40:46.877Z,939.64
2024-04-04T11:40:57.139Z,939.64
2024-04-04T11:41:07.403Z,939.68
2024-04-04T11:41:17.705Z,939.69
2024-04-04T11:41:27.998Z,939.70
2024-04-04T11:41:38.292Z,939.67
2024-04-04T11:41:48.553Z,939.69
2024-04-04T11:41:58.811Z,939.61
2024-04-04T11:42:09.073Z,939.63
2024-04-04T11:42:19.357Z,939.65
2024-04-04T11:42:29.653Z,939.65
2024-04-04T11:42:39.962Z,939.64
2024-04-04T11:42:51.929Z,939.65
2024-04-04T11:43:00.612Z,939.69
2024-04-04T11:43:10.978Z,939.56
2024-04-04T11:43:21.257Z,939.54
2024-04-04T11:43:31.518Z,939.56
2024-04-04T11:43:41.789Z,939.57
2024-04-04T11:43:52.081Z,939.60
2024-04-04T11:44:02.335Z,939.64
2024-04-04T11:44:12.618Z,939.60
2024-04-04T11:44:22.896Z,939.57
2024-04-04T11:44:33.187Z,939.59
2024-04-04T11:44:43.449Z,939.58
2024-04-04T11:44:53.730Z,939.57
2024-04-04T11:45:04.033Z,939.60
2024-04-04T11:45:14.334Z,939.63
2024-04-04T11:45:24.618Z,939.65
2024-04-04T11:45:34.885Z,939.64
2024-04-04T11:45:45.164Z,939.69
2024-04-04T11:45:55.462Z,939.70
2024-04-04T11:46:05.735Z,939.72
2024-04-04T11:46:16.028Z,939.76
2024-04-04T11:46:26.384Z,939.77
2024-04-04T11:46:36.508Z,939.75
2024-04-04T11:46:46.769Z,939.76
2024-04-04T11:46:57.072Z,939.71
2024-04-04T11:47:07.349Z,939.78
2024-04-04T11:47:17.617Z,939.78
2024-04-04T11:47:55.317Z,939.79
2024-04-04T11:47:55.779Z,939.85
2024-04-04T11:53:50.476Z,939.92
2024-04-04T11:54:00.758Z,939.89
2024-04-04T11:54:11.048Z,939.88
2024-04-04T11:54:21.309Z,939.91
2024-04-04T11:54:31.646Z,939.91
2024-04-04T11:54:41.914Z,939.92
2024-04-04T11:54:52.181Z,939.94
2024-04-04T11:55:02.463Z,939.97
2024-04-04T11:55:12.785Z,939.99
2024-04-04T11:55:23.064Z,940.00
2024-04-04T11:55:33.322Z,939.95
2024-04-04T11:55:43.713Z,939.92
2024-04-04T11:55:53.971Z,939.97
2024-04-04T11:56:04.267Z,939.96
2024-04-04T11:56:14.589Z,939.93
2024-04-04T11:56:24.927Z,939.94
2024-04-04T11:56:35.189Z,940.03
2024-04-04T11:56:45.444Z,939.99
2024-04-04T11:56:55.732Z,939.96
2024-04-04T11:57:06.047Z,940.00
2024-04-04T11:57:16.478Z,939.84
2024-04-04T11:57:26.576Z,939.93
2024-04-04T11:57:36.871Z,939.94
2024-04-04T11:57:47.157Z,939.94
2024-04-04T11:57:57.432Z,939.92
2024-04-04T11:58:07.754Z,939.88
2024-04-04T11:58:18.095Z,939.89
2024-04-04T11:58:28.371Z,939.84
2024-04-04T11:58:38.631Z,939.87
2024-04-04T11:58:50.741Z,939.83
2024-04-04T11:58:59.274Z,939.91
2024-04-04T11:59:09.549Z,939.92
2024-04-04T11:59:19.841Z,939.91
2024-04-04T11:59:30.150Z,939.93
2024-04-04T11:59:40.461Z,939.97
2024-04-04T12:00:00.992Z,939.96
2024-04-04T12:00:11.268Z,940.00
2024-04-04T12:00:21.540Z,940.01
2024-04-04T12:00:31.826Z,939.99
2024-04-04T12:00:42.122Z,940.01
2024-04-04T12:00:52.431Z,940.00
2024-04-04T12:01:02.714Z,940.02
2024-04-04T12:01:13.001Z,940.03
2024-04-04T12:01:23.286Z,939.96
2024-04-04T12:01:33.543Z,940.00
2024-04-04T12:01:43.806Z,940.03
2024-04-04T12:01:54.074Z,940.04
2024-04-04T12:02:04.356Z,940.01
2024-04-04T12:02:14.658Z,940.02
2024-04-04T12:02:24.919Z,940.00
2024-04-04T12:02:35.213Z,940.00
2024-04-04T12:03:54.352Z,939.97
2024-04-04T12:04:04.642Z,940.01
2024-04-04T12:04:15.003Z,939.93
2024-04-04T12:04:25.120Z,939.95
2024-04-04T12:04:35.393Z,939.89
2024-04-04T12:04:45.695Z,939.93
2024-04-04T12:04:55.979Z,940.02
2024-04-04T12:05:06.310Z,939.99
2024-04-04T12:05:16.562Z,940.03
2024-04-04T12:05:26.889Z,940.03
2024-04-04T12:05:39.104Z,940.01
2024-04-04T12:05:47.458Z,940.01
2024-04-04T12:05:57.739Z,940.03
2024-04-04T12:06:08.000Z,940.02
2024-04-04T12:06:18.270Z,940.00
2024-04-04T12:06:29.262Z,940.03
2024-04-04T12:06:49.019Z,940.01
2024-04-04T12:06:59.297Z,940.00
2024-04-04T12:07:09.593Z,940.02
2024-04-04T12:07:19.847Z,940.04
2024-04-04T12:07:30.218Z,940.02
2024-04-04T12:07:40.487Z,940.00
2024-04-04T12:09:18.663Z,940.00
2024-04-04T12:09:46.640Z,940.09
2024-04-04T12:09:48.676Z,940.07
2024-04-04T12:09:58.965Z,940.09
2024-04-04T12:10:09.153Z,940.10
2024-04-04T12:10:21.164Z,940.09
2024-04-04T12:10:30.828Z,940.08
2024-04-04T12:10:50.419Z,940.12
2024-04-04T12:11:00.742Z,940.16
2024-04-04T12:11:11.629Z,940.12
2024-04-04T12:11:22.150Z,940.15
2024-04-04T12:11:32.130Z,940.12
2024-04-04T12:11:42.559Z,940.10
2024-04-04T12:11:51.896Z,940.10
2024-04-04T12:12:04.143Z,940.08
2024-04-04T12:12:12.523Z,940.09
2024-04-04T12:12:22.833Z,940.06
2024-04-04T12:12:33.142Z,940.03
2024-04-04T12:12:43.434Z,940.02
2024-04-04T12:12:53.738Z,940.02
2024-04-04T12:13:14.335Z,940.08
2024-04-04T12:13:24.635Z,940.10
2024-04-04T12:13:34.935Z,940.03
2024-04-04T12:13:45.262Z,940.01
2024-04-04T12:13:55.556Z,940.03
2024-04-04T12:14:05.854Z,940.01
2024-04-04T12:14:16.163Z,940.06
2024-04-04T12:14:26.446Z,940.05
2024-04-04T12:14:36.744Z,940.01
2024-04-04T12:22:56.380Z,940.15
2024-04-04T12:23:06.273Z,940.17
2024-04-04T12:23:16.639Z,940.15
2024-04-04T12:23:28.700Z,940.11
2024-04-04T12:23:37.215Z,940.19
2024-04-04T12:23:52.958Z,940.19
2024-04-04T12:24:06.971Z,940.19
2024-04-04T12:24:09.043Z,940.16
2024-04-04T12:24:18.354Z,940.17
2024-04-04T12:24:28.636Z,940.21
2024-04-04T12:24:38.935Z,940.16
2024-04-04T12:24:49.244Z,940.13
2024-04-04T12:24:59.542Z,940.11
2024-04-04T12:25:09.835Z,940.09
2024-04-04T12:25:20.138Z,940.10
2024-04-04T12:25:30.419Z,940.11
2024-04-04T12:25:40.680Z,940.14
2024-04-04T12:25:50.958Z,940.17
2024-04-04T12:26:01.270Z,940.22
2024-04-04T12:26:11.604Z,940.20
2024-04-04T12:26:21.906Z,940.17
2024-04-04T12:26:32.187Z,940.24
2024-04-04T12:26:42.482Z,940.18
2024-04-04T12:26:52.753Z,940.21
2024-04-04T12:27:03.069Z,940.23
2024-04-04T12:27:13.370Z,940.21
2024-04-04T12:27:23.634Z,940.19
2024-04-04T12:27:33.917Z,940.23
2024-04-04T12:27:44.215Z,940.21
2024-04-04T12:27:54.516Z,940.27
2024-04-04T12:28:04.823Z,940.33
2024-04-04T12:28:15.183Z,940.19
2024-04-04T12:28:25.320Z,940.26
2024-04-04T12:28:37.141Z,940.27
2024-04-04T12:28:45.818Z,940.25
2024-04-04T12:28:56.143Z,940.27
2024-04-04T12:29:06.438Z,940.28
2024-04-04T12:29:16.742Z,940.27
2024-04-04T12:29:27.242Z,940.28
2024-04-04T12:29:37.339Z,940.27
2024-04-04T12:29:47.618Z,940.27
2024-04-04T12:29:57.907Z,940.27
2024-04-04T12:30:08.230Z,940.27
2024-04-04T12:30:18.503Z,940.31
2024-04-04T12:30:28.839Z,940.27
2024-04-04T12:30:39.147Z,940.26
2024-04-04T12:30:49.418Z,940.27
2024-04-04T12:30:59.728Z,940.27
2024-04-04T12:31:10.015Z,940.24
2024-04-04T12:31:20.337Z,940.23
2024-04-04T12:31:30.657Z,940.28
2024-04-04T12:31:40.942Z,940.29
2024-04-04T12:31:51.214Z,940.34
2024-04-04T12:32:01.534Z,940.31
2024-04-04T12:32:11.844Z,940.27
2024-04-04T12:32:22.128Z,940.27
2024-04-04T12:32:32.499Z,940.25
2024-04-04T12:32:42.805Z,940.28
2024-04-04T12:32:53.121Z,940.24
2024-04-04T12:33:03.445Z,940.20
2024-04-04T12:33:13.760Z,940.26
2024-04-04T12:33:24.042Z,940.29
2024-04-04T12:33:34.394Z,940.24
2024-04-04T12:33:44.674Z,940.22
2024-04-04T12:33:55.010Z,940.21
2024-04-04T12:34:05.310Z,940.21
2024-04-04T12:34:15.632Z,940.15
2024-04-04T12:34:25.947Z,940.22
2024-04-04T12:34:36.271Z,940.26
2024-04-04T12:34:46.562Z,940.25
2024-04-04T12:34:56.848Z,940.24
2024-04-04T12:35:07.138Z,940.28
2024-04-04T12:35:17.442Z,940.26
2024-04-04T12:35:27.763Z,940.26
2024-04-04T12:35:38.050Z,940.25
2024-04-04T12:35:48.342Z,940.26
2024-04-04T12:35:58.623Z,940.30
2024-04-04T12:36:08.900Z,940.23
2024-04-04T12:36:19.167Z,940.23
2024-04-04T12:36:29.479Z,940.19
2024-04-04T12:36:39.793Z,940.18
2024-04-04T12:36:50.085Z,940.21
2024-04-04T12:37:00.353Z,940.25
2024-04-04T12:37:10.648Z,940.25
2024-04-04T12:37:20.939Z,940.21
2024-04-04T12:37:31.218Z,940.19
2024-04-04T12:37:42.761Z,940.21
2024-04-04T12:44:18.390Z,940.36
2024-04-04T12:44:28.755Z,940.35
2024-04-04T12:44:40.034Z,940.30
2024-04-04T12:44:49.360Z,940.29
2024-04-04T12:44:59.674Z,940.30
2024-04-04T12:45:09.943Z,940.31
2024-04-04T12:45:20.226Z,940.34
2024-04-04T12:45:30.512Z,940.32
2024-04-04T12:45:40.778Z,940.35
2024-04-04T12:45:51.078Z,940.37
2024-04-04T12:46:01.361Z,940.28
2024-04-04T12:46:11.665Z,940.20
2024-04-04T12:46:21.947Z,940.25
2024-04-04T12:46:32.215Z,940.24
2024-04-04T12:46:42.490Z,940.26
2024-04-04T12:46:52.819Z,940.29
2024-04-04T12:47:03.078Z,940.28
2024-04-04T12:47:13.377Z,940.30
2024-04-04T12:47:23.680Z,940.30
2024-04-04T12:47:33.954Z,940.31
2024-04-04T12:47:44.249Z,940.33
2024-04-04T12:52:57.044Z,940.34
2024-04-04T12:53:07.145Z,940.40
2024-04-04T12:53:17.474Z,940.43
2024-04-04T12:53:27.772Z,940.42
2024-04-04T12:53:38.065Z,940.41
2024-04-04T12:53:48.376Z,940.43
2024-04-04T12:53:58.671Z,940.44
2024-04-04T12:54:08.954Z,940.41
2024-04-04T12:54:20.189Z,940.41
2024-04-04T12:54:29.561Z,940.45
2024-04-04T12:54:39.870Z,940.44
2024-04-04T12:54:50.143Z,940.44
2024-04-04T12:55:00.421Z,940.47
2024-04-04T12:55:10.829Z,940.49
2024-04-04T12:55:21.108Z,940.44
2024-04-04T12:55:31.415Z,940.46
2024-04-04T12:55:41.740Z,940.48
2024-04-04T12:55:52.027Z,940.51
2024-04-04T12:56:02.309Z,940.50
2024-04-04T12:56:12.581Z,940.46
2024-04-04T12:56:22.859Z,940.49
2024-04-04T12:56:33.134Z,940.47
2024-04-04T12:56:43.491Z,940.51
2024-04-04T12:56:53.795Z,940.47
2024-04-04T12:57:04.058Z,940.50
2024-04-04T12:57:14.311Z,940.54
2024-04-04T12:57:24.616Z,940.50
2024-04-04T12:57:34.917Z,940.47
2024-04-04T12:57:45.234Z,940.52
2024-04-04T12:57:55.524Z,940.55
2024-04-04T12:58:05.820Z,940.53
2024-04-04T12:58:16.133Z,940.54
2024-04-04T12:58:26.446Z,940.49
2024-04-04T12:58:36.782Z,940.51
2024-04-04T12:58:47.066Z,940.47
2024-04-04T12:58:57.354Z,940.46
2024-04-04T12:59:07.642Z,940.46
2024-04-04T12:59:17.959Z,940.52
2024-04-04T12:59:28.331Z,940.55
2024-04-04T12:59:38.461Z,940.50
2024-04-04T12:59:48.750Z,940.45
2024-04-04T12:59:59.049Z,940.41
2024-04-04T13:00:09.356Z,940.45
2024-04-04T13:00:19.638Z,940.48
2024-04-04T13:00:29.942Z,940.47
2024-04-04T13:00:40.227Z,940.49
2024-04-04T13:00:51.545Z,940.45
2024-04-04T13:01:00.922Z,940.50
2024-04-04T13:01:11.234Z,940.48
2024-04-04T13:01:21.539Z,940.43
2024-04-04T13:01:31.816Z,940.44
2024-04-04T13:01:42.093Z,940.44
2024-04-04T13:01:52.378Z,940.44
2024-04-04T13:02:02.706Z,940.49
2024-04-04T13:02:13.007Z,940.47
2024-04-04T13:02:23.305Z,940.47
2024-04-04T13:02:33.598Z,940.48
2024-04-04T13:02:43.888Z,940.50
2024-04-04T13:02:54.180Z,940.50
2024-04-04T13:03:04.472Z,940.50
2024-04-04T13:03:14.793Z,940.48
2024-04-04T13:03:25.107Z,940.48
2024-04-04T13:03:35.405Z,940.46
2024-04-04T13:03:45.721Z,940.45
2024-04-04T13:03:56.014Z,940.41
2024-04-04T13:04:06.331Z,940.43
2024-04-04T13:04:16.696Z,940.44
2024-04-04T13:04:26.831Z,940.46
2024-04-04T13:04:37.172Z,940.45
2024-04-04T13:04:47.453Z,940.45
2024-04-04T13:04:57.753Z,940.45
2024-04-04T13:05:08.046Z,940.44
2024-04-04T13:05:18.461Z,940.46
2024-04-04T13:05:28.557Z,940.44
2024-04-04T13:05:38.841Z,940.41
2024-04-04T13:05:49.119Z,940.42
2024-04-04T13:05:59.393Z,940.44
2024-04-04T13:06:09.712Z,940.44
2024-04-04T13:06:21.305Z,940.46
2024-04-04T13:06:30.288Z,940.48
2024-04-04T13:06:40.561Z,940.47
2024-04-04T13:06:50.904Z,940.47
2024-04-04T13:07:01.192Z,940.44
2024-04-04T13:07:11.517Z,940.46
2024-04-04T13:07:21.799Z,940.46
2024-04-04T13:07:32.093Z,940.47
2024-04-04T13:07:42.380Z,940.47
2024-04-04T13:07:52.656Z,940.47
2024-04-04T13:08:02.947Z,940.47
2024-04-04T13:08:13.244Z,940.43
2024-04-04T13:08:23.530Z,940.41
2024-04-04T13:08:33.830Z,940.42
2024-04-04T13:08:44.147Z,940.44
2024-04-04T13:08:54.446Z,940.45
2024-04-04T13:09:04.732Z,940.47
2024-04-04T13:09:15.012Z,940.49
2024-04-04T13:09:25.313Z,940.50
2024-04-04T13:09:35.605Z,940.51
2024-04-04T13:09:45.901Z,940.50
2024-04-04T13:09:56.191Z,940.49
2024-04-04T13:10:06.468Z,940.47
2024-04-04T13:10:16.841Z,940.43
2024-04-04T13:10:26.982Z,940.41
2024-04-04T13:10:37.292Z,940.44
2024-04-04T13:10:47.587Z,940.46
2024-04-04T13:10:57.877Z,940.46
2024-04-04T13:11:08.183Z,940.46
2024-04-04T13:11:18.456Z,940.46
2024-04-04T13:11:28.796Z,940.46
2024-04-04T13:11:39.131Z,940.45
2024-04-04T13:11:49.426Z,940.44
2024-04-04T13:11:59.721Z,940.46
2024-04-04T13:12:09.998Z,940.43
2024-04-04T13:12:20.291Z,940.42
2024-04-04T13:12:30.642Z,940.44
2024-04-04T13:12:40.920Z,940.44
2024-04-04T13:12:51.235Z,940.46
2024-04-04T13:13:01.513Z,940.45
2024-04-04T13:13:11.806Z,940.48
2024-04-04T13:13:22.082Z,940.46
2024-04-04T13:13:32.371Z,940.45
2024-04-04T13:13:42.649Z,940.43
2024-04-04T13:13:52.978Z,940.44
2024-04-04T13:14:03.246Z,940.46
2024-04-04T13:14:13.545Z,940.47
2024-04-04T13:14:23.817Z,940.45
2024-04-04T13:14:34.104Z,940.44
2024-04-04T13:14:44.394Z,940.45
2024-04-04T13:14:54.662Z,940.46
2024-04-04T13:15:04.935Z,940.47
2024-04-04T13:15:15.228Z,940.48
2024-04-04T13:15:25.526Z,940.46
2024-04-04T13:15:35.820Z,940.45
2024-04-04T13:15:46.075Z,940.48